createdAt,value
2022-07-26T00:02:20.388Z,9.50
2022-07-26T00:04:46.936Z,6.60
2022-07-26T00:07:13.521Z,12.67
2022-07-26T00:09:43.824Z,6.83
2022-07-26T00:12:14.314Z,11.93
2022-07-26T00:14:40.857Z,8.07
2022-07-26T00:17:07.557Z,13.67
2022-07-26T00:19:33.995Z,8.03
2022-07-26T00:22:19.206Z,7.20
2022-07-26T00:24:45.662Z,5.47
2022-07-26T00:27:12.094Z,10.43
2022-07-26T00:29:38.540Z,8.73
2022-07-26T00:32:05.389Z,9.97
2022-07-26T00:34:31.970Z,9.13
2022-07-26T00:36:58.409Z,7.53
2022-07-26T00:39:24.999Z,11.27
2022-07-26T00:41:51.531Z,10.00
2022-07-26T00:44:18.027Z,11.63
2022-07-26T00:46:44.775Z,6.27
2022-07-26T00:49:12.287Z,11.53
2022-07-26T00:51:39.440Z,9.10
2022-07-26T00:54:06.759Z,10.93
2022-07-26T00:56:34.045Z,11.13
2022-07-26T00:59:00.813Z,15.73
2022-07-26T01:01:27.481Z,12.40
2022-07-26T01:03:54.454Z,16.50
2022-07-26T01:06:26.995Z,10.17
2022-07-26T01:08:53.998Z,11.93
2022-07-26T01:11:20.429Z,12.10
2022-07-26T01:13:48.812Z,13.43
2022-07-26T01:16:15.437Z,14.33
2022-07-26T01:18:41.956Z,15.83
2022-07-26T01:21:13.833Z,14.37
2022-07-26T01:23:41.224Z,12.93
2022-07-26T01:26:07.722Z,17.17
2022-07-26T01:28:39.332Z,13.57
2022-07-26T01:31:06.521Z,10.90
2022-07-26T01:33:34.556Z,10.50
2022-07-26T01:36:01.711Z,16.53
2022-07-26T01:38:28.528Z,13.97
2022-07-26T01:40:54.998Z,14.80
2022-07-26T01:43:21.459Z,15.97
2022-07-26T01:45:48.086Z,19.63
2022-07-26T01:48:14.743Z,14.33
2022-07-26T01:50:41.346Z,12.50
2022-07-26T01:53:07.942Z,13.90
2022-07-26T01:55:35.112Z,14.47
2022-07-26T01:58:01.614Z,12.37
2022-07-26T02:00:29.068Z,19.47
2022-07-26T02:02:55.578Z,10.57
2022-07-26T02:05:22.218Z,13.50
2022-07-26T02:07:48.922Z,12.13
2022-07-26T02:10:17.260Z,15.27
2022-07-26T02:12:44.290Z,11.03
2022-07-26T02:15:11.989Z,14.07
2022-07-26T02:17:38.439Z,15.97
2022-07-26T02:20:05.918Z,10.87
2022-07-26T02:22:32.360Z,16.43
2022-07-26T02:25:04.513Z,15.97
2022-07-26T02:27:31.745Z,19.80
2022-07-26T02:29:58.205Z,16.60
2022-07-26T02:32:24.659Z,14.20
2022-07-26T02:34:51.098Z,17.07
2022-07-26T02:37:17.560Z,19.37
2022-07-26T02:39:44.006Z,15.47
2022-07-26T02:42:10.557Z,16.43
2022-07-26T02:44:37.157Z,16.10
2022-07-26T02:47:03.652Z,15.57
2022-07-26T02:49:30.114Z,15.10
2022-07-26T02:51:56.537Z,17.33
2022-07-26T02:54:23.065Z,11.80
2022-07-26T02:56:49.471Z,15.20
2022-07-26T02:59:15.957Z,15.77
2022-07-26T03:01:42.436Z,15.57
2022-07-26T03:04:09.255Z,15.30
2022-07-26T03:06:35.974Z,12.40
2022-07-26T03:09:02.662Z,12.10
2022-07-26T03:11:29.081Z,13.43
2022-07-26T03:13:55.523Z,12.20
2022-07-26T03:16:24.886Z,13.83
2022-07-26T03:18:55.333Z,15.83
2022-07-26T03:21:21.791Z,15.20
2022-07-26T03:23:48.288Z,20.30
2022-07-26T03:26:15.563Z,10.00
2022-07-26T03:28:42.619Z,16.73
2022-07-26T03:31:09.188Z,11.33
2022-07-26T03:33:35.755Z,16.90
2022-07-26T03:36:02.259Z,13.07
2022-07-26T03:38:29.004Z,14.10
2022-07-26T03:40:55.421Z,15.57
2022-07-26T03:43:23.428Z,11.67
2022-07-26T03:45:50.650Z,21.50
2022-07-26T03:48:17.182Z,18.50
2022-07-26T03:50:43.660Z,15.73
2022-07-26T03:53:10.125Z,12.90
2022-07-26T03:55:55.309Z,12.27
2022-07-26T03:58:21.963Z,15.20
2022-07-26T04:00:48.406Z,13.93
2022-07-26T04:03:15.030Z,17.23
2022-07-26T04:05:48.630Z,15.23
2022-07-26T04:08:16.018Z,14.57
2022-07-26T04:10:46.076Z,15.13
2022-07-26T04:13:12.511Z,18.33
2022-07-26T04:15:38.972Z,11.97
2022-07-26T04:18:05.399Z,17.37
2022-07-26T04:20:31.890Z,13.23
2022-07-26T04:22:58.317Z,15.27
2022-07-26T04:25:24.951Z,14.57
2022-07-26T04:27:51.407Z,14.43
2022-07-26T04:30:18.091Z,15.73
2022-07-26T04:32:46.632Z,13.37
2022-07-26T04:35:13.806Z,14.17
2022-07-26T04:37:41.298Z,18.70
2022-07-26T04:40:08.697Z,15.57
2022-07-26T04:42:35.426Z,17.20
2022-07-26T04:45:07.756Z,15.43
2022-07-26T04:47:34.854Z,13.13
2022-07-26T04:50:01.778Z,14.03
2022-07-26T04:52:28.207Z,11.60
2022-07-26T04:54:54.692Z,12.87
2022-07-26T04:57:21.122Z,15.90
2022-07-26T04:59:58.134Z,14.17
2022-07-26T05:02:34.180Z,22.43
2022-07-26T05:05:00.656Z,13.23
2022-07-26T05:07:27.072Z,14.50
2022-07-26T05:09:53.949Z,17.87
2022-07-26T05:12:20.366Z,15.27
2022-07-26T05:14:46.842Z,14.57
2022-07-26T05:17:13.589Z,12.70
2022-07-26T05:19:48.967Z,13.27
2022-07-26T05:22:15.713Z,9.53
2022-07-26T05:24:42.188Z,13.37
2022-07-26T05:27:08.627Z,10.23
2022-07-26T05:29:35.078Z,12.53
2022-07-26T05:32:01.707Z,12.43
2022-07-26T05:34:28.142Z,17.60
2022-07-26T05:36:54.583Z,23.40
2022-07-26T05:39:21.029Z,13.17
2022-07-26T05:41:47.478Z,13.93
2022-07-26T05:44:15.290Z,17.57
2022-07-26T05:46:41.751Z,9.30
2022-07-26T05:49:08.436Z,8.70
2022-07-26T05:51:35.126Z,10.23
2022-07-26T05:54:01.535Z,6.97
2022-07-26T05:56:27.962Z,9.73
2022-07-26T05:58:54.391Z,10.87
2022-07-26T06:01:20.833Z,10.37
2022-07-26T06:03:49.163Z,9.07
2022-07-26T06:06:15.628Z,8.80
2022-07-26T06:08:42.051Z,10.47
2022-07-26T06:11:08.555Z,8.23
2022-07-26T06:13:34.981Z,9.13
2022-07-26T06:16:01.403Z,18.83
2022-07-26T06:18:27.828Z,9.90
2022-07-26T06:20:54.447Z,11.67
2022-07-26T06:23:30.876Z,8.83
2022-07-26T06:26:01.436Z,14.67
2022-07-26T06:28:27.907Z,7.83
2022-07-26T06:30:54.327Z,8.57
2022-07-26T06:33:20.747Z,10.77
2022-07-26T06:35:47.154Z,8.53
2022-07-26T06:38:13.666Z,14.63
2022-07-26T06:40:40.121Z,9.60
2022-07-26T06:43:06.574Z,9.23
2022-07-26T06:45:34.008Z,7.13
2022-07-26T06:48:00.729Z,10.53
2022-07-26T06:50:27.173Z,7.80
2022-07-26T06:52:53.655Z,8.97
2022-07-26T06:55:20.075Z,9.37
2022-07-26T06:57:49.952Z,5.57
2022-07-26T07:00:17.740Z,7.57
2022-07-26T07:02:44.208Z,8.40
2022-07-26T07:05:11.961Z,4.20
2022-07-26T07:07:38.638Z,5.30
2022-07-26T07:10:05.943Z,2.33
2022-07-26T07:12:32.799Z,3.13
2022-07-26T07:14:59.250Z,2.03
2022-07-26T07:17:25.716Z,7.13
2022-07-26T07:19:52.162Z,2.33
2022-07-26T07:22:18.583Z,3.30
2022-07-26T07:24:45.012Z,3.73
2022-07-26T07:27:13.112Z,5.13
2022-07-26T07:29:43.330Z,4.83
2022-07-26T07:32:18.232Z,6.03
2022-07-26T07:34:48.111Z,6.77
2022-07-26T07:37:15.453Z,9.10
2022-07-26T07:39:42.193Z,8.80
2022-07-26T07:42:08.839Z,5.90
2022-07-26T07:44:35.275Z,4.07
2022-07-26T07:47:01.859Z,3.33
2022-07-26T07:49:28.466Z,6.73
2022-07-26T07:51:54.946Z,2.50
2022-07-26T07:54:22.318Z,3.73
2022-07-26T07:56:49.011Z,4.90
2022-07-26T07:59:15.461Z,5.03
2022-07-26T08:01:42.657Z,6.57
2022-07-26T08:04:11.584Z,8.17
2022-07-26T08:06:38.200Z,6.20
2022-07-26T08:09:07.736Z,4.43
2022-07-26T08:11:34.660Z,4.60
2022-07-26T08:14:01.652Z,5.13
2022-07-26T08:16:28.167Z,7.10
2022-07-26T08:19:07.806Z,4.57
2022-07-26T08:21:35.426Z,7.10
2022-07-26T08:24:02.467Z,5.47
2022-07-26T08:26:28.918Z,5.43
2022-07-26T08:28:59.602Z,3.80
2022-07-26T08:31:27.658Z,5.90
2022-07-26T08:33:54.228Z,8.53
2022-07-26T08:36:20.677Z,12.50
2022-07-26T08:38:47.737Z,5.33
2022-07-26T08:41:15.060Z,4.40
2022-07-26T08:43:51.907Z,3.03
2022-07-26T08:46:25.188Z,4.50
2022-07-26T08:48:53.124Z,5.17
2022-07-26T08:51:20.290Z,6.77
2022-07-26T08:53:47.708Z,5.97
2022-07-26T08:56:14.235Z,3.50
2022-07-26T08:58:42.056Z,6.93
2022-07-26T09:01:12.705Z,6.07
2022-07-26T09:03:39.856Z,4.83
2022-07-26T09:06:14.332Z,7.23
2022-07-26T09:08:40.815Z,3.20
2022-07-26T09:11:30.032Z,6.07
2022-07-26T09:13:59.477Z,4.77
2022-07-26T09:16:26.293Z,7.43
2022-07-26T09:18:53.429Z,4.97
2022-07-26T09:21:36.270Z,6.03
2022-07-26T09:24:02.975Z,9.50
2022-07-26T09:26:29.412Z,4.40
2022-07-26T09:29:25.214Z,7.50
2022-07-26T09:31:51.715Z,7.60
2022-07-26T09:34:25.609Z,5.37
2022-07-26T09:36:54.364Z,5.13
2022-07-26T09:39:22.759Z,6.03
2022-07-26T09:42:26.714Z,2.87
2022-07-26T09:44:54.810Z,6.77
2022-07-26T09:47:21.692Z,6.40
2022-07-26T09:49:48.584Z,2.87
2022-07-26T09:52:17.479Z,6.33
2022-07-26T09:54:46.753Z,3.47
2022-07-26T09:57:16.350Z,6.47
2022-07-26T09:59:42.821Z,4.20
2022-07-26T10:02:10.214Z,7.67
2022-07-26T10:04:36.755Z,3.93
2022-07-26T10:07:03.882Z,3.63
2022-07-26T10:09:41.097Z,4.60
2022-07-26T10:12:09.067Z,5.30
2022-07-26T10:14:48.291Z,5.07
2022-07-26T10:17:29.015Z,4.17
2022-07-26T10:19:58.436Z,6.03
2022-07-26T10:22:27.664Z,4.83
2022-07-26T10:24:58.233Z,4.07
2022-07-26T10:27:41.342Z,3.60
2022-07-26T10:30:20.046Z,7.73
2022-07-26T10:33:03.741Z,3.53
2022-07-26T10:35:36.389Z,8.93
2022-07-26T10:38:22.070Z,3.60
2022-07-26T10:41:00.306Z,4.53
2022-07-26T10:43:43.202Z,7.70
2022-07-26T10:46:15.914Z,7.10
2022-07-26T10:49:06.488Z,4.50
2022-07-26T10:51:38.757Z,6.07
2022-07-26T10:54:05.160Z,6.60
2022-07-26T10:56:33.658Z,5.90
2022-07-26T10:59:01.126Z,6.30
2022-07-26T11:01:35.297Z,4.00
2022-07-26T11:04:01.969Z,4.13
2022-07-26T11:06:30.185Z,6.63
2022-07-26T11:08:56.803Z,4.13
2022-07-26T11:11:31.063Z,8.90
2022-07-26T11:14:11.860Z,4.77
2022-07-26T11:16:47.499Z,5.97
2022-07-26T11:19:21.018Z,5.53
2022-07-26T11:21:54.499Z,6.87
2022-07-26T11:24:22.096Z,7.73
2022-07-26T11:26:48.932Z,7.93
2022-07-26T11:29:17.203Z,4.43
2022-07-26T11:31:50.555Z,3.73
2022-07-26T11:34:28.712Z,5.83
2022-07-26T11:36:57.403Z,7.30
2022-07-26T11:39:24.545Z,4.97
2022-07-26T11:41:53.077Z,7.13
2022-07-26T11:44:21.719Z,8.07
2022-07-26T11:46:49.402Z,6.77
2022-07-26T11:49:18.678Z,9.00
2022-07-26T11:51:53.315Z,10.87
2022-07-26T11:54:24.106Z,5.73
2022-07-26T11:56:54.709Z,7.87
2022-07-26T11:59:21.720Z,9.97
2022-07-26T12:01:49.798Z,11.67
2022-07-26T12:04:27.905Z,9.43
2022-07-26T12:06:55.644Z,13.13
2022-07-26T12:09:36.672Z,11.40
2022-07-26T12:12:12.338Z,8.57
2022-07-26T12:14:39.797Z,11.90
2022-07-26T12:17:18.572Z,11.20
2022-07-26T12:19:45.664Z,10.57
2022-07-26T12:22:20.759Z,12.53
2022-07-26T12:24:53.360Z,13.60
2022-07-26T12:27:25.340Z,9.63
2022-07-26T12:29:54.727Z,9.13
2022-07-26T12:32:23.357Z,12.07
2022-07-26T12:35:09.206Z,12.43
2022-07-26T12:37:48.178Z,10.30
2022-07-26T12:40:23.526Z,17.07
2022-07-26T12:42:49.885Z,12.97
2022-07-26T12:45:18.446Z,10.10
2022-07-26T12:47:47.442Z,8.47
2022-07-26T12:50:14.912Z,7.03
2022-07-26T12:52:42.252Z,11.30
2022-07-26T12:55:15.196Z,10.63
2022-07-26T12:57:46.240Z,12.97
2022-07-26T13:00:15.789Z,14.20
2022-07-26T13:02:43.699Z,13.43
2022-07-26T13:05:11.542Z,10.60
2022-07-26T13:07:38.623Z,7.40
2022-07-26T13:10:36.135Z,12.53
2022-07-26T13:12:52.809Z,7.53
2022-07-26T13:15:19.269Z,10.83
2022-07-26T13:17:45.883Z,13.90
2022-07-26T13:20:12.394Z,8.10
2022-07-26T13:22:39.720Z,7.73
2022-07-26T13:25:08.759Z,7.93
2022-07-26T13:27:36.143Z,10.80
2022-07-26T13:30:05.134Z,13.30
2022-07-26T13:32:31.587Z,10.03
2022-07-26T13:34:58.030Z,11.60
2022-07-26T13:37:24.948Z,14.63
2022-07-26T13:39:51.428Z,11.27
2022-07-26T13:42:19.314Z,6.70
2022-07-26T13:44:45.963Z,11.10
2022-07-26T13:47:12.535Z,10.00
2022-07-26T13:49:39.057Z,5.67
2022-07-26T13:52:05.849Z,8.73
2022-07-26T13:54:34.609Z,8.77
2022-07-26T13:57:03.061Z,5.33
2022-07-26T13:59:29.694Z,8.53
2022-07-26T14:01:56.509Z,5.37
2022-07-26T14:04:23.869Z,6.80
2022-07-26T14:06:50.615Z,7.77
2022-07-26T14:09:17.982Z,5.87
2022-07-26T14:11:45.245Z,8.20
2022-07-26T14:14:12.423Z,4.73
2022-07-26T14:16:39.619Z,8.43
2022-07-26T14:19:06.548Z,5.17
2022-07-26T14:21:43.560Z,10.40
2022-07-26T14:24:21.057Z,9.77
2022-07-26T14:26:47.660Z,6.47
2022-07-26T14:29:14.249Z,7.30
2022-07-26T14:31:40.988Z,5.40
2022-07-26T14:34:07.631Z,6.33
2022-07-26T14:36:34.231Z,12.30
2022-07-26T14:39:00.875Z,7.47
2022-07-26T14:41:27.575Z,6.97
2022-07-26T14:43:55.826Z,10.43
2022-07-26T14:46:22.569Z,6.00
2022-07-26T14:48:54.399Z,7.97
2022-07-26T14:51:21.547Z,6.03
2022-07-26T14:53:48.002Z,7.87
2022-07-26T14:56:14.693Z,7.50
2022-07-26T14:58:41.155Z,6.43
2022-07-26T15:01:07.927Z,5.90
2022-07-26T15:03:34.619Z,8.43
2022-07-26T15:06:01.072Z,5.30
2022-07-26T15:08:27.564Z,6.83
2022-07-26T15:10:54.095Z,7.03
2022-07-26T15:13:20.613Z,7.37
2022-07-26T15:15:47.573Z,7.67
2022-07-26T15:18:14.036Z,4.70
2022-07-26T15:20:41.973Z,5.17
2022-07-26T15:23:09.681Z,8.30
2022-07-26T15:25:38.417Z,8.37
2022-07-26T15:28:05.416Z,4.77
2022-07-26T15:30:35.615Z,2.93
2022-07-26T15:33:02.158Z,4.57
2022-07-26T15:35:29.596Z,4.53
2022-07-26T15:37:56.483Z,5.37
2022-07-26T15:40:23.152Z,6.33
2022-07-26T15:42:51.938Z,4.40
2022-07-26T15:45:20.219Z,4.30
2022-07-26T15:48:03.183Z,4.67
2022-07-26T15:50:35.062Z,2.93
2022-07-26T15:53:01.571Z,3.10
2022-07-26T15:55:28.253Z,5.90
2022-07-26T15:57:54.852Z,6.40
2022-07-26T16:00:21.460Z,6.73
2022-07-26T16:02:48.039Z,5.67
2022-07-26T16:05:14.975Z,6.03
2022-07-26T16:07:42.229Z,7.50
2022-07-26T16:10:10.563Z,6.93
2022-07-26T16:12:37.141Z,4.73
2022-07-26T16:15:04.905Z,6.13
2022-07-26T16:17:31.406Z,7.67
2022-07-26T16:19:57.898Z,9.87
2022-07-26T16:22:24.616Z,9.03
2022-07-26T16:24:51.187Z,7.57
2022-07-26T16:27:17.755Z,5.37
2022-07-26T16:29:46.782Z,4.50
2022-07-26T16:32:15.567Z,6.27
2022-07-26T16:34:42.759Z,6.50
2022-07-26T16:37:09.249Z,7.77
2022-07-26T16:39:35.672Z,6.00
2022-07-26T16:42:06.882Z,9.00
2022-07-26T16:44:33.651Z,7.07
2022-07-26T16:47:00.222Z,5.57
2022-07-26T16:49:26.824Z,8.37
2022-07-26T16:51:53.350Z,5.67
2022-07-26T16:54:20.942Z,9.27
2022-07-26T16:56:47.572Z,7.53
2022-07-26T16:59:14.401Z,5.70
2022-07-26T17:01:41.403Z,11.53
2022-07-26T17:04:09.962Z,9.93
2022-07-26T17:06:36.511Z,7.30
2022-07-26T17:09:03.405Z,8.93
2022-07-26T17:11:29.903Z,5.00
2022-07-26T17:13:56.370Z,11.43
2022-07-26T17:16:25.101Z,7.20
2022-07-26T17:18:54.062Z,7.40
2022-07-26T17:21:21.140Z,11.00
2022-07-26T17:23:48.769Z,9.57
2022-07-26T17:26:16.325Z,7.10
2022-07-26T17:28:42.942Z,7.13
2022-07-26T17:31:09.756Z,10.67
2022-07-26T17:33:36.204Z,11.43
2022-07-26T17:36:18.963Z,7.77
2022-07-26T17:38:46.912Z,11.83
2022-07-26T17:41:18.303Z,9.43
2022-07-26T17:43:47.378Z,5.90
2022-07-26T17:46:13.954Z,6.83
2022-07-26T17:48:41.755Z,5.80
2022-07-26T17:51:08.271Z,4.73
2022-07-26T17:53:34.930Z,6.97
2022-07-26T17:56:02.245Z,8.57
2022-07-26T17:58:28.797Z,5.57
2022-07-26T18:00:55.331Z,5.97
2022-07-26T18:03:23.111Z,7.07
2022-07-26T18:05:50.286Z,8.57
2022-07-26T18:08:17.099Z,12.97
2022-07-26T18:10:46.444Z,5.23
2022-07-26T18:13:15.510Z,7.23
2022-07-26T18:15:42.062Z,4.97
2022-07-26T18:18:08.745Z,7.60
2022-07-26T18:20:35.187Z,4.57
2022-07-26T18:23:02.700Z,5.80
2022-07-26T18:25:29.773Z,2.67
2022-07-26T18:27:56.287Z,6.17
2022-07-26T18:30:22.732Z,7.20
2022-07-26T18:32:49.182Z,6.33
2022-07-26T18:35:15.724Z,7.83
2022-07-26T18:37:42.279Z,6.80
2022-07-26T18:40:09.077Z,3.67
2022-07-26T18:42:36.229Z,4.43
2022-07-26T18:45:02.730Z,10.00
2022-07-26T18:47:29.468Z,4.67
2022-07-26T18:49:55.990Z,5.07
2022-07-26T18:52:31.687Z,7.33
2022-07-26T18:54:59.610Z,5.80
2022-07-26T18:57:26.087Z,5.87
2022-07-26T18:59:52.526Z,5.87
2022-07-26T19:02:19.036Z,7.33
2022-07-26T19:04:45.466Z,6.13
2022-07-26T19:07:12.065Z,4.37
2022-07-26T19:09:38.566Z,7.47
2022-07-26T19:12:05.162Z,5.47
2022-07-26T19:14:31.626Z,5.90
2022-07-26T19:16:58.406Z,9.13
2022-07-26T19:19:24.954Z,5.83
2022-07-26T19:21:51.418Z,4.47
2022-07-26T19:24:18.000Z,9.07
2022-07-26T19:26:44.587Z,5.03
2022-07-26T19:29:11.237Z,6.37
2022-07-26T19:31:40.356Z,8.93
2022-07-26T19:34:06.915Z,6.70
2022-07-26T19:36:33.388Z,6.23
2022-07-26T19:39:01.231Z,3.80
2022-07-26T19:41:27.793Z,4.93
2022-07-26T19:43:54.312Z,8.27
2022-07-26T19:46:20.823Z,12.10
2022-07-26T19:48:47.428Z,11.90
2022-07-26T19:51:13.911Z,3.13
2022-07-26T19:53:40.414Z,5.23
2022-07-26T19:56:07.803Z,7.30
2022-07-26T19:58:34.299Z,7.10
2022-07-26T20:01:01.064Z,5.53
2022-07-26T20:03:27.709Z,6.20
2022-07-26T20:05:55.652Z,2.20
2022-07-26T20:08:22.190Z,6.43
2022-07-26T20:10:48.614Z,6.00
2022-07-26T20:13:15.180Z,5.37
2022-07-26T20:15:41.909Z,8.20
2022-07-26T20:18:08.931Z,4.97
2022-07-26T20:20:35.539Z,2.40
2022-07-26T20:23:04.079Z,5.20
2022-07-26T20:25:32.078Z,2.67
2022-07-26T20:27:58.575Z,6.10
2022-07-26T20:30:25.298Z,4.83
2022-07-26T20:32:51.765Z,5.37
2022-07-26T20:35:18.265Z,8.23
2022-07-26T20:37:44.889Z,4.73
2022-07-26T20:40:12.345Z,6.13
2022-07-26T20:42:42.057Z,4.10
2022-07-26T20:45:12.900Z,3.93
2022-07-26T20:47:43.048Z,3.83
2022-07-26T20:50:10.767Z,6.20
2022-07-26T20:52:37.500Z,5.20
2022-07-26T20:55:04.438Z,5.57
2022-07-26T20:57:30.949Z,5.23
2022-07-26T20:59:57.396Z,5.87
2022-07-26T21:02:23.962Z,5.17
2022-07-26T21:04:50.582Z,7.43
2022-07-26T21:07:17.110Z,3.73
2022-07-26T21:09:43.563Z,4.43
2022-07-26T21:12:10.122Z,7.70
2022-07-26T21:14:36.577Z,4.40
2022-07-26T21:17:06.659Z,3.10
2022-07-26T21:19:36.030Z,6.97
2022-07-26T21:22:02.472Z,5.67
2022-07-26T21:24:29.061Z,3.73
2022-07-26T21:26:55.624Z,7.10
2022-07-26T21:29:22.543Z,5.27
2022-07-26T21:31:49.125Z,5.67
2022-07-26T21:34:15.583Z,7.77
2022-07-26T21:36:42.120Z,7.87
2022-07-26T21:39:09.128Z,6.67
2022-07-26T21:41:36.115Z,5.03
2022-07-26T21:44:03.962Z,4.23
2022-07-26T21:46:30.641Z,9.23
2022-07-26T21:48:57.282Z,5.90
2022-07-26T21:51:23.767Z,7.00
2022-07-26T21:53:50.333Z,7.30
2022-07-26T21:56:16.781Z,3.97
2022-07-26T21:58:43.240Z,4.93
2022-07-26T22:01:12.001Z,5.30
2022-07-26T22:03:39.499Z,6.00
2022-07-26T22:06:06.797Z,3.47
2022-07-26T22:08:33.722Z,5.73
2022-07-26T22:11:00.384Z,6.27
2022-07-26T22:13:27.140Z,3.43
2022-07-26T22:15:53.548Z,5.73
2022-07-26T22:18:20.420Z,4.93
2022-07-26T22:20:50.324Z,6.83
2022-07-26T22:23:17.759Z,5.00
2022-07-26T22:25:44.534Z,3.93
2022-07-26T22:28:11.963Z,3.53
2022-07-26T22:30:44.360Z,2.63
2022-07-26T22:33:11.839Z,5.30
2022-07-26T22:35:38.747Z,4.57
2022-07-26T22:38:08.259Z,6.50
2022-07-26T22:40:35.114Z,4.40
2022-07-26T22:43:01.664Z,6.93
2022-07-26T22:45:29.188Z,5.83
2022-07-26T22:47:56.646Z,4.50
2022-07-26T22:50:24.800Z,3.07
2022-07-26T22:52:52.240Z,3.33
2022-07-26T22:55:18.928Z,2.90
2022-07-26T22:57:45.600Z,8.87
2022-07-26T23:00:15.458Z,6.73
2022-07-26T23:02:41.936Z,4.40
2022-07-26T23:05:09.338Z,2.50
2022-07-26T23:07:37.027Z,8.83
2022-07-26T23:10:04.788Z,5.23
2022-07-26T23:12:31.275Z,3.93
2022-07-26T23:14:57.930Z,3.90
2022-07-26T23:17:24.382Z,3.97
2022-07-26T23:19:51.213Z,5.90
2022-07-26T23:22:17.685Z,8.87
2022-07-26T23:24:44.650Z,3.03
2022-07-26T23:27:14.283Z,5.73
2022-07-26T23:29:43.303Z,2.10
2022-07-26T23:32:12.474Z,6.23
2022-07-26T23:34:39.070Z,9.63
2022-07-26T23:37:05.543Z,7.37
2022-07-26T23:39:31.985Z,5.53
2022-07-26T23:41:58.665Z,6.47
2022-07-26T23:44:25.123Z,4.77
2022-07-26T23:46:51.622Z,3.00
2022-07-26T23:49:18.298Z,5.70
2022-07-26T23:51:44.924Z,6.27
2022-07-26T23:54:11.374Z,4.90
2022-07-26T23:56:37.850Z,7.77
2022-07-26T23:59:04.603Z,4.87
